Time;durP1;ratioP1;P1;durP2;ratioP2;P2;SDS_P1;SDS_P2;PMS_P1;PMS_P2;Temp;Humidity;BMP_temperature;BMP_pressure;BME280_temperature;BME280_humidity;BME280_pressure;Samples;Min_cycle;Max_cycle;Signal;HPM_P1;HPM_P2
2022/08/29 00:01:25;;;;;;;0.20;0.10;;;;;;;;;;6286606;22;20132;-86
2022/08/29 00:03:56;;;;;;;0.20;0.10;;;;;;;;;;6245144;22;20665;-86
2022/08/29 00:06:31;;;;;;;0.20;0.10;;;;;;;;;;6270592;22;20097;-86
2022/08/29 00:19:32;;;;;;;0.28;0.17;;;;;;;;;;6174010;23;20528;-86
2022/08/29 00:25:06;;;;;;;0.20;0.20;;;;;;;;;;6149800;23;20028;-87
2022/08/29 00:31:04;;;;;;;0.20;0.10;;;;;;;;;;6144708;23;20029;-86
2022/08/29 00:33:39;;;;;;;0.20;0.10;;;;;;;;;;6096490;23;20016;-86
2022/08/29 00:36:05;;;;;;;0.47;0.15;;;;;;;;;;6120583;23;20355;-85
2022/08/29 00:38:37;;;;;;;0.20;0.10;;;;;;;;;;6145431;23;20013;-86
2022/08/29 00:41:19;;;;;;;0.20;0.10;;;;;;;;;;6144671;23;20020;-86
2022/08/29 00:43:56;;;;;;;0.20;0.10;;;;;;;;;;6120520;23;20028;-85
2022/08/29 00:49:51;;;;;;;0.20;0.10;;;;;;;;;;6207368;23;20020;-86
2022/08/29 00:56:07;;;;;;;;;;;;;;;;;;;;;
2022/08/29 00:59:07;;;;;;;0.20;0.10;;;;;;;;;;6186036;22;20067;-86
2022/08/29 01:18:21;;;;;;;0.20;0.10;;;;;;;;;;6116255;23;20068;-86
2022/08/29 01:21:19;;;;;;;0.20;0.10;;;;;;;;;;6086081;23;20013;-86
2022/08/29 01:24:24;;;;;;;0.20;0.10;;;;;;;;;;6087340;23;20042;-86
2022/08/29 01:27:06;;;;;;;0.20;0.00;;;;;;;;;;6057689;23;20074;-86
2022/08/29 01:33:40;;;;;;;0.20;0.10;;;;;;;;;;6083447;23;20390;-86
2022/08/29 01:36:58;;;;;;;0.20;0.10;;;;;;;;;;6088258;23;20597;-86
2022/08/29 01:40:00;;;;;;;0.20;0.00;;;;;;;;;;6081919;23;20013;-86
2022/08/29 01:43:00;;;;;;;;;;;;;;;;;;;;;
2022/08/29 01:49:47;;;;;;;0.20;0.10;;;;;;;;;;6223667;23;20023;-86
2022/08/29 01:56:02;;;;;;;0.20;0.10;;;;;;;;;;6244953;22;20053;-86
2022/08/29 01:59:17;;;;;;;0.20;0.10;;;;;;;;;;6240262;22;20016;-86
2022/08/29 02:02:11;;;;;;;0.20;0.10;;;;;;;;;;6052238;23;20544;-86
2022/08/29 02:04:40;;;;;;;0.20;0.10;;;;;;;;;;6212612;22;20023;-86
2022/08/29 02:07:32;;;;;;;0.20;0.10;;;;;;;;;;6215785;22;20019;-86
2022/08/29 02:10:17;;;;;;;0.20;0.10;;;;;;;;;;6211655;22;20066;-86
2022/08/29 02:13:38;;;;;;;;;;;;;;;;;;;;;
2022/08/29 02:16:58;;;;;;;0.20;0.10;;;;;;;;;;6058578;23;20011;-86
2022/08/29 02:20:04;;;;;;;0.20;0.10;;;;;;;;;;6038216;23;20034;-86
2022/08/29 02:32:46;;;;;;;0.20;0.10;;;;;;;;;;6269929;22;20076;-86
2022/08/29 02:35:21;;;;;;;0.20;0.10;;;;;;;;;;6270397;22;20072;-86
2022/08/29 02:41:48;;;;;;;;;;;;;;;;;;;;;
2022/08/29 02:48:17;;;;;;;;;;;;;;;;;;;;;
2022/08/29 02:54:19;;;;;;;0.20;0.10;;;;;;;;;;6272724;22;20024;-86
2022/08/29 02:56:48;;;;;;;0.20;0.10;;;;;;;;;;6250165;22;20020;-86
2022/08/29 02:59:32;;;;;;;0.20;0.10;;;;;;;;;;6252458;22;20349;-86
2022/08/29 03:02:19;;;;;;;1.00;0.95;;;;;;;;;;6204729;23;20020;-85
2022/08/29 03:05:15;;;;;;;0.20;0.10;;;;;;;;;;6181602;23;20063;-86
2022/08/29 03:11:54;;;;;;;;;;;;;;;;;;;;;
2022/08/29 03:14:39;;;;;;;0.20;0.10;;;;;;;;;;6176022;23;20589;-86
2022/08/29 03:31:26;;;;;;;0.20;0.20;;;;;;;;;;6293598;22;20031;-87
2022/08/29 03:33:52;;;;;;;0.20;0.10;;;;;;;;;;6280720;22;20531;-86
2022/08/29 03:36:50;;;;;;;0.20;0.10;;;;;;;;;;6282022;22;20083;-88
2022/08/29 03:39:54;;;;;;;0.20;0.10;;;;;;;;;;6257883;22;20512;-88
2022/08/29 03:42:21;;;;;;;0.20;0.10;;;;;;;;;;6230234;22;20321;-88
2022/08/29 03:44:47;;;;;;;0.20;0.10;;;;;;;;;;6276856;22;20015;-87
2022/08/29 03:47:16;;;;;;;0.20;0.10;;;;;;;;;;6275680;22;20228;-89
2022/08/29 03:50:19;;;;;;;0.20;0.10;;;;;;;;;;6277914;22;20159;-89
2022/08/29 03:53:27;;;;;;;0.20;0.10;;;;;;;;;;6230161;22;20023;-89
2022/08/29 03:56:49;;;;;;;0.20;0.10;;;;;;;;;;6217910;22;20022;-89
2022/08/29 04:00:00;;;;;;;0.30;0.25;;;;;;;;;;6188748;22;20085;-88
2022/08/29 04:02:39;;;;;;;;;;;;;;;;;;;;;
2022/08/29 04:05:54;;;;;;;0.20;0.10;;;;;;;;;;6203743;22;20019;-89
2022/08/29 04:08:38;;;;;;;0.20;0.10;;;;;;;;;;6258496;22;20012;-88
2022/08/29 04:14:19;;;;;;;0.20;0.10;;;;;;;;;;6237192;22;20016;-89
2022/08/29 04:16:53;;;;;;;0.20;0.10;;;;;;;;;;6216519;22;20019;-88
2022/08/29 04:19:26;;;;;;;;;;;;;;;;;;6276742;22;20018;-87
2022/08/29 04:21:52;;;;;;;0.20;0.10;;;;;;;;;;6275893;22;20335;-87
2022/08/29 04:24:24;;;;;;;0.20;0.10;;;;;;;;;;6249704;22;20459;-88
2022/08/29 04:26:56;;;;;;;0.20;0.10;;;;;;;;;;6278117;22;20026;-88
2022/08/29 04:29:37;;;;;;;0.20;0.00;;;;;;;;;;6275934;22;20455;-88
2022/08/29 04:32:21;;;;;;;0.20;0.00;;;;;;;;;;6302758;22;20014;-87
2022/08/29 04:34:48;;;;;;;0.20;0.10;;;;;;;;;;6278928;22;20018;-89
2022/08/29 04:37:20;;;;;;;0.20;0.10;;;;;;;;;;6278567;22;20019;-87
2022/08/29 04:39:52;;;;;;;0.20;0.10;;;;;;;;;;6175574;22;20360;-89
2022/08/29 04:42:23;;;;;;;0.20;0.10;;;;;;;;;;6065476;23;20018;-88
2022/08/29 04:45:16;;;;;;;0.20;0.00;;;;;;;;;;6064847;23;20018;-88
2022/08/29 04:48:07;;;;;;;;;;;;;;;;;;;;;
2022/08/29 04:50:55;;;;;;;0.20;0.10;;;;;;;;;;6088172;23;20451;-89
2022/08/29 04:56:42;;;;;;;;;;;;;;;;;;;;;
2022/08/29 04:59:16;;;;;;;0.20;0.10;;;;;;;;;;6204061;23;20024;-88
2022/08/29 05:01:53;;;;;;;0.20;0.10;;;;;;;;;;6175231;23;20020;-86
2022/08/29 05:04:37;;;;;;;0.20;0.10;;;;;;;;;;6164781;22;20013;-88
2022/08/29 05:07:15;;;;;;;0.20;0.10;;;;;;;;;;6151467;23;20015;-87
2022/08/29 05:10:32;;;;;;;0.20;0.10;;;;;;;;;;6151621;23;20037;-88
2022/08/29 05:13:38;;;;;;;0.20;0.10;;;;;;;;;;6223279;23;20020;-86
2022/08/29 05:20:15;;;;;;;0.20;0.10;;;;;;;;;;6130582;23;20023;-88
2022/08/29 05:22:44;;;;;;;0.20;0.10;;;;;;;;;;6201101;23;20504;-86
2022/08/29 05:25:14;;;;;;;0.20;0.10;;;;;;;;;;6129404;23;20023;-87
2022/08/29 05:28:15;;;;;;;0.20;0.10;;;;;;;;;;6150419;23;20091;-87
2022/08/29 05:30:58;;;;;;;0.20;0.17;;;;;;;;;;6268724;22;20053;-86
2022/08/29 05:33:38;;;;;;;0.20;0.10;;;;;;;;;;6220361;22;20019;-88
2022/08/29 05:39:30;;;;;;;0.20;0.10;;;;;;;;;;6294493;22;20538;-87
2022/08/29 05:42:18;;;;;;;0.20;0.10;;;;;;;;;;6245094;22;20584;-87
2022/08/29 05:44:57;;;;;;;0.20;0.10;;;;;;;;;;6271028;22;20015;-87
2022/08/29 05:47:41;;;;;;;0.20;0.10;;;;;;;;;;6276897;22;20220;-85
2022/08/29 05:50:16;;;;;;;0.20;0.10;;;;;;;;;;6272124;22;20590;-86
2022/08/29 05:53:17;;;;;;;;;;;;;;;;;;;;;
2022/08/29 05:55:55;;;;;;;0.20;0.10;;;;;;;;;;6266676;22;20437;-87
2022/08/29 05:58:32;;;;;;;0.20;0.10;;;;;;;;;;6240861;22;20047;-87
2022/08/29 06:01:17;;;;;;;0.20;0.10;;;;;;;;;;6214671;22;20016;-86
2022/08/29 06:03:46;;;;;;;0.20;0.10;;;;;;;;;;6240310;22;20061;-86
2022/08/29 06:06:28;;;;;;;0.20;0.10;;;;;;;;;;6235149;23;20099;-86
2022/08/29 06:09:22;;;;;;;0.20;0.10;;;;;;;;;;6235448;23;20508;-86
2022/08/29 06:11:49;;;;;;;0.20;0.10;;;;;;;;;;6236481;22;20020;-86
2022/08/29 06:14:53;;;;;;;0.20;0.10;;;;;;;;;;6236696;23;20364;-87
2022/08/29 06:17:26;;;;;;;0.20;0.10;;;;;;;;;;6237261;23;20023;-87
2022/08/29 06:20:07;;;;;;;0.20;0.10;;;;;;;;;;6236669;23;20368;-86
2022/08/29 06:23:16;;;;;;;0.20;0.10;;;;;;;;;;6212191;23;20020;-88
2022/08/29 06:25:42;;;;;;;0.20;0.10;;;;;;;;;;6230964;23;20016;-85
2022/08/29 06:28:41;;;;;;;0.20;0.10;;;;;;;;;;6117620;23;20013;-87
2022/08/29 06:31:26;;;;;;;0.20;0.10;;;;;;;;;;6142014;23;20373;-87
2022/08/29 06:34:05;;;;;;;0.20;0.10;;;;;;;;;;6117955;23;20013;-86
2022/08/29 06:36:31;;;;;;;0.20;0.10;;;;;;;;;;6128876;23;20059;-86
2022/08/29 06:38:58;;;;;;;0.20;0.10;;;;;;;;;;6154042;23;20047;-86
2022/08/29 06:41:32;;;;;;;0.20;0.10;;;;;;;;;;6153361;23;20016;-87
2022/08/29 06:44:04;;;;;;;0.20;0.10;;;;;;;;;;6178675;22;20012;-87
2022/08/29 06:46:34;;;;;;;0.20;0.10;;;;;;;;;;6153472;23;20411;-87
2022/08/29 06:49:05;;;;;;;0.20;0.10;;;;;;;;;;6177908;23;20453;-85
2022/08/29 06:51:53;;;;;;;0.20;0.10;;;;;;;;;;6177304;23;20065;-85
2022/08/29 06:54:21;;;;;;;0.20;0.03;;;;;;;;;;6178293;23;20043;-85
2022/08/29 06:56:54;;;;;;;0.20;0.10;;;;;;;;;;6152997;23;20043;-83
2022/08/29 06:59:22;;;;;;;0.20;0.10;;;;;;;;;;6153538;23;20307;-88
2022/08/29 07:02:24;;;;;;;0.20;0.20;;;;;;;;;;6177394;23;20024;-86
2022/08/29 07:04:50;;;;;;;0.20;0.10;;;;;;;;;;6152935;23;20353;-84
2022/08/29 07:07:16;;;;;;;0.20;0.10;;;;;;;;;;6179616;23;20092;-85
2022/08/29 07:09:43;;;;;;;0.20;0.10;;;;;;;;;;6178822;23;20017;-85
2022/08/29 07:12:22;;;;;;;;;;;;;;;;;;;;;
2022/08/29 07:15:35;;;;;;;0.20;0.10;;;;;;;;;;6178056;23;20009;-86
2022/08/29 07:18:38;;;;;;;;;;;;;;;;;;;;;
2022/08/29 07:24:09;;;;;;;0.20;0.10;;;;;;;;;;6172313;23;20104;-85
2022/08/29 07:26:40;;;;;;;0.20;0.10;;;;;;;;;;6101350;23;20013;-85
2022/08/29 07:29:08;;;;;;;0.20;0.10;;;;;;;;;;6124325;23;20013;-86
2022/08/29 07:31:37;;;;;;;0.20;0.10;;;;;;;;;;6123218;23;20013;-84
2022/08/29 07:34:04;;;;;;;0.20;0.10;;;;;;;;;;6147944;23;20069;-86
2022/08/29 07:36:32;;;;;;;0.20;0.10;;;;;;;;;;6123290;22;20017;-89
2022/08/29 07:38:58;;;;;;;0.20;0.10;;;;;;;;;;6097497;23;20017;-87
2022/08/29 07:41:37;;;;;;;0.20;0.10;;;;;;;;;;6224106;22;20027;-88
2022/08/29 07:44:18;;;;;;;0.20;0.10;;;;;;;;;;6124464;23;20059;-88
2022/08/29 07:47:01;;;;;;;0.20;0.10;;;;;;;;;;6153224;22;20084;-88
2022/08/29 07:49:33;;;;;;;0.20;0.10;;;;;;;;;;6127449;23;20021;-88
2022/08/29 07:55:30;;;;;;;0.20;0.10;;;;;;;;;;6117678;22;20022;-88
2022/08/29 07:57:59;;;;;;;0.20;0.10;;;;;;;;;;6119354;23;20075;-88
2022/08/29 08:00:48;;;;;;;0.20;0.10;;;;;;;;;;6122243;23;20013;-90
2022/08/29 08:03:14;;;;;;;0.20;0.10;;;;;;;;;;6134361;23;20021;-87
2022/08/29 08:05:47;;;;;;;0.20;0.10;;;;;;;;;;6144133;23;20014;-90
2022/08/29 08:11:43;;;;;;;0.20;0.10;;;;;;;;;;6175004;22;20028;-88
2022/08/29 08:14:09;;;;;;;0.20;0.10;;;;;;;;;;6118939;23;20083;-88
2022/08/29 08:16:38;;;;;;;0.20;0.10;;;;;;;;;;6119242;23;20450;-89
2022/08/29 08:19:05;;;;;;;0.20;0.10;;;;;;;;;;6119366;23;20018;-88
2022/08/29 08:21:37;;;;;;;0.20;0.00;;;;;;;;;;6119624;23;20017;-90
2022/08/29 08:27:34;;;;;;;0.20;0.10;;;;;;;;;;6149724;23;20022;-87
2022/08/29 08:33:50;;;;;;;0.20;0.10;;;;;;;;;;6174689;23;20133;-89
2022/08/29 08:36:16;;;;;;;0.20;0.10;;;;;;;;;;6063886;23;20014;-86
2022/08/29 08:38:46;;;;;;;0.20;0.10;;;;;;;;;;6087189;23;20014;-88
2022/08/29 08:41:23;;;;;;;0.20;0.10;;;;;;;;;;6089086;23;20025;-88
2022/08/29 08:44:20;;;;;;;;;;;;;;;;;;;;;
2022/08/29 08:46:48;;;;;;;0.20;0.10;;;;;;;;;;6089813;23;20021;-89
2022/08/29 08:49:26;;;;;;;0.20;0.10;;;;;;;;;;6062875;23;20347;-89
2022/08/29 08:51:54;;;;;;;0.20;0.10;;;;;;;;;;6063557;23;20048;-90
2022/08/29 08:57:07;;;;;;;0.20;0.10;;;;;;;;;;6172277;22;20089;-88
2022/08/29 08:59:53;;;;;;;0.20;0.10;;;;;;;;;;6123987;23;20017;-89
2022/08/29 09:02:44;;;;;;;0.20;0.10;;;;;;;;;;6122839;23;20032;-88
2022/08/29 09:08:17;;;;;;;0.20;0.10;;;;;;;;;;6146292;23;20030;-89
2022/08/29 09:14:13;;;;;;;0.20;0.10;;;;;;;;;;6145373;23;20025;-88
2022/08/29 09:16:45;;;;;;;0.20;0.10;;;;;;;;;;6169905;23;20021;-89
2022/08/29 09:19:50;;;;;;;0.20;0.10;;;;;;;;;;6155158;22;20032;-86
2022/08/29 09:22:51;;;;;;;0.20;0.10;;;;;;;;;;6146079;22;20025;-86
2022/08/29 09:25:37;;;;;;;0.20;0.10;;;;;;;;;;6140702;22;20365;-83
2022/08/29 09:28:16;;;;;;;0.20;0.10;;;;;;;;;;6150321;22;20100;-86
2022/08/29 09:31:07;;;;;;;0.20;0.10;;;;;;;;;;6148946;22;20088;-85
2022/08/29 09:37:35;;;;;;;0.20;0.10;;;;;;;;;;6175198;23;20021;-85
2022/08/29 09:40:12;;;;;;;0.20;0.10;;;;;;;;;;6148574;23;20028;-86
2022/08/29 09:42:45;;;;;;;0.20;0.10;;;;;;;;;;6173484;23;20013;-85
2022/08/29 09:45:23;;;;;;;0.20;0.10;;;;;;;;;;6148249;23;20017;-86
2022/08/29 09:47:50;;;;;;;0.20;0.10;;;;;;;;;;6148689;22;20529;-84
2022/08/29 09:50:23;;;;;;;0.20;0.10;;;;;;;;;;6148588;23;20386;-85
2022/08/29 09:52:55;;;;;;;0.20;0.10;;;;;;;;;;6173992;23;20017;-88
2022/08/29 09:55:34;;;;;;;0.20;0.10;;;;;;;;;;6147385;23;20538;-85
2022/08/29 09:58:13;;;;;;;0.20;0.10;;;;;;;;;;6149200;23;20092;-86
2022/08/29 10:04:43;;;;;;;0.20;0.10;;;;;;;;;;6164287;23;20075;-84
2022/08/29 10:07:17;;;;;;;0.20;0.10;;;;;;;;;;6126042;23;20028;-85
2022/08/29 10:09:52;;;;;;;0.20;0.10;;;;;;;;;;6149965;23;20013;-83
2022/08/29 10:12:22;;;;;;;0.20;0.10;;;;;;;;;;6148769;23;20020;-84
2022/08/29 10:14:52;;;;;;;0.20;0.10;;;;;;;;;;6149867;23;20044;-86
2022/08/29 10:20:55;;;;;;;0.20;0.10;;;;;;;;;;6137914;23;20017;-85
2022/08/29 10:23:40;;;;;;;0.20;0.10;;;;;;;;;;6122860;23;20178;-85
2022/08/29 10:26:26;;;;;;;0.20;0.10;;;;;;;;;;6145557;23;20013;-84
2022/08/29 10:29:19;;;;;;;0.20;0.05;;;;;;;;;;6125259;23;20142;-86
2022/08/29 10:31:54;;;;;;;0.20;0.10;;;;;;;;;;6144523;23;20022;-85
2022/08/29 10:34:27;;;;;;;0.20;0.20;;;;;;;;;;6170011;23;20142;-85
2022/08/29 10:37:00;;;;;;;0.20;0.10;;;;;;;;;;6146338;23;20087;-87
2022/08/29 10:39:26;;;;;;;0.20;0.10;;;;;;;;;;6170242;23;20021;-88
2022/08/29 10:41:56;;;;;;;0.20;0.10;;;;;;;;;;6145654;23;20013;-88
2022/08/29 10:44:22;;;;;;;0.90;0.30;;;;;;;;;;6144515;23;20021;-84
2022/08/29 10:47:03;;;;;;;0.20;0.10;;;;;;;;;;6145013;23;20067;-87
2022/08/29 10:49:43;;;;;;;0.20;0.10;;;;;;;;;;6143272;23;20021;-87
2022/08/29 10:52:18;;;;;;;0.20;0.10;;;;;;;;;;6144475;23;20013;-85
2022/08/29 10:55:02;;;;;;;0.20;0.10;;;;;;;;;;6145454;23;20021;-87
2022/08/29 10:57:29;;;;;;;0.20;0.10;;;;;;;;;;6146075;23;20045;-84
2022/08/29 11:00:02;;;;;;;0.20;0.10;;;;;;;;;;6144059;23;20013;-84
2022/08/29 11:02:49;;;;;;;0.20;0.10;;;;;;;;;;6145620;22;20083;-85
2022/08/29 11:05:21;;;;;;;0.20;0.10;;;;;;;;;;6130825;23;20453;-88
2022/08/29 11:07:53;;;;;;;0.20;0.10;;;;;;;;;;6170435;23;20024;-85
2022/08/29 11:10:25;;;;;;;0.20;0.10;;;;;;;;;;6145183;23;20017;-85
2022/08/29 11:13:12;;;;;;;0.20;0.10;;;;;;;;;;6145443;23;20017;-88
2022/08/29 11:16:02;;;;;;;0.20;0.10;;;;;;;;;;6145003;23;20013;-87
2022/08/29 11:18:31;;;;;;;0.20;0.10;;;;;;;;;;6116629;23;20009;-87
2022/08/29 11:21:03;;;;;;;0.20;0.10;;;;;;;;;;6143462;23;20024;-85
2022/08/29 11:23:43;;;;;;;0.20;0.10;;;;;;;;;;6145093;23;20021;-85
2022/08/29 11:26:18;;;;;;;0.20;0.10;;;;;;;;;;6145033;23;20059;-86
2022/08/29 11:29:03;;;;;;;0.20;0.10;;;;;;;;;;6144673;23;20025;-86
2022/08/29 11:31:55;;;;;;;0.20;0.10;;;;;;;;;;6144993;23;20068;-87
2022/08/29 11:34:34;;;;;;;0.20;0.10;;;;;;;;;;6143716;23;20021;-87
2022/08/29 11:37:18;;;;;;;0.20;0.03;;;;;;;;;;6146527;23;20013;-85
2022/08/29 11:40:00;;;;;;;0.20;0.10;;;;;;;;;;6170483;23;20017;-87
2022/08/29 11:42:29;;;;;;;0.20;0.10;;;;;;;;;;6144482;23;20068;-85
2022/08/29 11:44:56;;;;;;;0.20;0.10;;;;;;;;;;6146053;23;20465;-86
2022/08/29 11:47:32;;;;;;;0.20;0.10;;;;;;;;;;6145445;23;20332;-85
2022/08/29 11:50:16;;;;;;;0.20;0.10;;;;;;;;;;6144583;23;20048;-86
2022/08/29 11:52:51;;;;;;;0.20;0.10;;;;;;;;;;6146389;23;20021;-87
2022/08/29 11:55:23;;;;;;;0.20;0.10;;;;;;;;;;6144729;22;20017;-88
2022/08/29 11:57:51;;;;;;;0.20;0.10;;;;;;;;;;6171581;23;20356;-86
2022/08/29 12:00:46;;;;;;;0.20;0.10;;;;;;;;;;6146586;23;20020;-86
2022/08/29 12:03:31;;;;;;;0.20;0.10;;;;;;;;;;6113666;23;20013;-86
2022/08/29 12:06:00;;;;;;;0.20;0.10;;;;;;;;;;6143946;23;20009;-86
2022/08/29 12:08:39;;;;;;;0.20;0.10;;;;;;;;;;6170328;23;20024;-85
2022/08/29 12:11:05;;;;;;;0.20;0.10;;;;;;;;;;6146842;22;20020;-87
2022/08/29 12:13:47;;;;;;;0.20;0.10;;;;;;;;;;6173087;23;20023;-87
2022/08/29 12:16:14;;;;;;;0.20;0.10;;;;;;;;;;6172585;23;20021;-89
2022/08/29 12:18:45;;;;;;;0.20;0.10;;;;;;;;;;6172304;23;20013;-86
2022/08/29 12:21:30;;;;;;;0.20;0.10;;;;;;;;;;6144846;23;20013;-85
2022/08/29 12:23:56;;;;;;;0.20;0.10;;;;;;;;;;6145242;22;20391;-84
2022/08/29 12:26:37;;;;;;;0.20;0.10;;;;;;;;;;6145541;23;20021;-86
2022/08/29 12:29:03;;;;;;;0.20;0.10;;;;;;;;;;6145889;23;20021;-88
2022/08/29 12:31:48;;;;;;;0.20;0.10;;;;;;;;;;6172967;23;20143;-86
2022/08/29 12:34:23;;;;;;;0.20;0.10;;;;;;;;;;6146103;23;20028;-86
2022/08/29 12:36:55;;;;;;;0.20;0.10;;;;;;;;;;6171849;23;20013;-89
2022/08/29 12:39:39;;;;;;;0.20;0.10;;;;;;;;;;6146230;23;20020;-85
2022/08/29 12:42:24;;;;;;;0.20;0.10;;;;;;;;;;6169531;23;20048;-84
2022/08/29 12:44:58;;;;;;;0.20;0.10;;;;;;;;;;6171560;23;20457;-84
2022/08/29 12:47:35;;;;;;;0.20;0.10;;;;;;;;;;6144755;23;20021;-84
2022/08/29 12:50:05;;;;;;;0.20;0.10;;;;;;;;;;6170925;23;20215;-86
2022/08/29 12:52:32;;;;;;;0.20;0.10;;;;;;;;;;6147195;23;20420;-84
2022/08/29 12:55:16;;;;;;;0.20;0.10;;;;;;;;;;6148262;22;20025;-86
2022/08/29 12:57:44;;;;;;;0.20;0.10;;;;;;;;;;6148966;22;20013;-88
2022/08/29 13:00:15;;;;;;;0.20;0.10;;;;;;;;;;6146351;22;20025;-85
2022/08/29 13:02:55;;;;;;;0.20;0.10;;;;;;;;;;6145879;23;20045;-90
2022/08/29 13:05:22;;;;;;;0.20;0.10;;;;;;;;;;6145299;23;20013;-85
2022/08/29 13:07:56;;;;;;;0.20;0.10;;;;;;;;;;6171255;23;20017;-87
2022/08/29 13:10:22;;;;;;;0.20;0.10;;;;;;;;;;6170353;23;20417;-87
2022/08/29 13:12:48;;;;;;;0.20;0.08;;;;;;;;;;6146161;23;20086;-87
2022/08/29 13:15:20;;;;;;;0.20;0.10;;;;;;;;;;6145919;23;20092;-84
2022/08/29 13:17:48;;;;;;;0.20;0.10;;;;;;;;;;6170691;23;20088;-84
2022/08/29 13:20:36;;;;;;;0.20;0.10;;;;;;;;;;6170245;23;20448;-86
2022/08/29 13:23:11;;;;;;;0.20;0.10;;;;;;;;;;6146546;23;20066;-85
2022/08/29 13:25:56;;;;;;;0.20;0.10;;;;;;;;;;6147023;23;20060;-88
2022/08/29 13:28:23;;;;;;;0.20;0.10;;;;;;;;;;6170462;23;20085;-83
2022/08/29 13:31:20;;;;;;;0.20;0.10;;;;;;;;;;6144662;23;20013;-85
2022/08/29 13:33:49;;;;;;;0.20;0.10;;;;;;;;;;6146313;23;20018;-84
2022/08/29 13:36:31;;;;;;;0.20;0.10;;;;;;;;;;6145475;23;20017;-84
2022/08/29 13:39:23;;;;;;;0.20;0.10;;;;;;;;;;6145940;23;20211;-85
2022/08/29 13:41:52;;;;;;;0.20;0.10;;;;;;;;;;6145118;22;20088;-84
2022/08/29 13:44:20;;;;;;;0.20;0.10;;;;;;;;;;6169759;23;20491;-88
2022/08/29 13:46:48;;;;;;;0.20;0.10;;;;;;;;;;6144425;23;20396;-85
2022/08/29 13:49:21;;;;;;;0.20;0.00;;;;;;;;;;6170400;23;20017;-85
2022/08/29 13:51:47;;;;;;;0.20;0.10;;;;;;;;;;6168977;23;20021;-83
2022/08/29 13:54:13;;;;;;;0.20;0.10;;;;;;;;;;6147087;23;20087;-87
2022/08/29 13:56:40;;;;;;;0.20;0.10;;;;;;;;;;6123118;23;20115;-87
2022/08/29 13:59:06;;;;;;;0.20;0.10;;;;;;;;;;6169420;23;20369;-87
2022/08/29 14:01:32;;;;;;;0.20;0.10;;;;;;;;;;6144933;23;20017;-82
2022/08/29 14:03:59;;;;;;;0.20;0.10;;;;;;;;;;6147717;23;20423;-87
2022/08/29 14:06:25;;;;;;;0.20;0.10;;;;;;;;;;6172028;23;20021;-85
2022/08/29 14:08:53;;;;;;;0.20;0.08;;;;;;;;;;6120088;23;20016;-83
2022/08/29 14:11:20;;;;;;;0.20;0.10;;;;;;;;;;6145377;22;20070;-84
2022/08/29 14:13:48;;;;;;;0.20;0.10;;;;;;;;;;6143748;23;20021;-84
2022/08/29 14:16:14;;;;;;;0.20;0.10;;;;;;;;;;6146108;23;20013;-86
2022/08/29 14:18:40;;;;;;;0.20;0.10;;;;;;;;;;6171618;23;20442;-86
2022/08/29 14:21:06;;;;;;;0.20;0.10;;;;;;;;;;6146648;23;20092;-84
2022/08/29 14:23:32;;;;;;;0.20;0.10;;;;;;;;;;6146986;23;20093;-86
2022/08/29 14:25:59;;;;;;;0.20;0.10;;;;;;;;;;6146833;23;20112;-84
2022/08/29 14:28:25;;;;;;;0.20;0.10;;;;;;;;;;6170767;23;20331;-85
2022/08/29 14:30:52;;;;;;;0.20;0.10;;;;;;;;;;6172144;23;20013;-84
2022/08/29 14:33:18;;;;;;;0.20;0.10;;;;;;;;;;6173061;23;20017;-84
2022/08/29 14:35:44;;;;;;;0.20;0.10;;;;;;;;;;6146389;23;20013;-85
2022/08/29 14:38:10;;;;;;;0.20;0.10;;;;;;;;;;6170478;23;20082;-84
2022/08/29 14:40:36;;;;;;;0.20;0.10;;;;;;;;;;6146034;23;20065;-84
2022/08/29 14:43:03;;;;;;;0.20;0.08;;;;;;;;;;6121790;23;20330;-86
2022/08/29 14:45:29;;;;;;;0.20;0.10;;;;;;;;;;6145570;23;20024;-84
2022/08/29 14:47:55;;;;;;;0.20;0.10;;;;;;;;;;6171742;23;20116;-84
2022/08/29 14:50:22;;;;;;;0.20;0.10;;;;;;;;;;6122381;23;20009;-86
2022/08/29 14:52:48;;;;;;;0.20;0.10;;;;;;;;;;6149215;23;20080;-83
2022/08/29 14:55:16;;;;;;;0.20;0.10;;;;;;;;;;6147103;23;20013;-83
2022/08/29 14:57:42;;;;;;;0.20;0.10;;;;;;;;;;6148125;22;20066;-87
2022/08/29 15:00:29;;;;;;;0.20;0.10;;;;;;;;;;6122439;23;20038;-85
2022/08/29 15:02:55;;;;;;;0.20;0.10;;;;;;;;;;6146323;23;20013;-86
2022/08/29 15:05:22;;;;;;;0.20;0.10;;;;;;;;;;6171888;23;20016;-85
2022/08/29 15:07:48;;;;;;;0.20;0.10;;;;;;;;;;6147483;22;20051;-85
2022/08/29 15:10:16;;;;;;;0.20;0.10;;;;;;;;;;6172448;23;20485;-85
2022/08/29 15:12:42;;;;;;;0.20;0.10;;;;;;;;;;6123555;23;20094;-86
2022/08/29 15:15:09;;;;;;;0.20;0.00;;;;;;;;;;6147276;23;20028;-86
2022/08/29 15:17:35;;;;;;;0.20;0.10;;;;;;;;;;6148197;22;20016;-88
2022/08/29 15:20:02;;;;;;;0.20;0.10;;;;;;;;;;6148042;23;20040;-89
2022/08/29 15:22:28;;;;;;;0.20;0.10;;;;;;;;;;6146341;23;20052;-87
2022/08/29 15:24:57;;;;;;;0.20;0.10;;;;;;;;;;6147688;23;20017;-87
2022/08/29 15:27:42;;;;;;;0.20;0.10;;;;;;;;;;6170001;23;20021;-86
2022/08/29 15:30:09;;;;;;;0.20;0.10;;;;;;;;;;6147609;23;20482;-86
2022/08/29 15:32:37;;;;;;;0.20;0.10;;;;;;;;;;6148279;23;20013;-85
2022/08/29 15:35:05;;;;;;;0.20;0.10;;;;;;;;;;6148353;23;20284;-85
2022/08/29 15:37:31;;;;;;;0.20;0.10;;;;;;;;;;6173160;23;20017;-85
2022/08/29 15:39:57;;;;;;;0.20;0.10;;;;;;;;;;6148000;23;20009;-84
2022/08/29 15:42:28;;;;;;;0.20;0.10;;;;;;;;;;6148950;23;20013;-85
2022/08/29 15:44:57;;;;;;;0.20;0.10;;;;;;;;;;6149596;22;20025;-86
2022/08/29 15:47:23;;;;;;;0.20;0.10;;;;;;;;;;6173719;23;20023;-87
2022/08/29 15:49:49;;;;;;;0.20;0.10;;;;;;;;;;6147253;23;20021;-87
2022/08/29 15:52:18;;;;;;;0.20;0.10;;;;;;;;;;6147767;23;20052;-87
2022/08/29 15:54:44;;;;;;;0.20;0.10;;;;;;;;;;6147268;23;20025;-85
2022/08/29 15:57:10;;;;;;;0.20;0.10;;;;;;;;;;6147900;23;20009;-84
2022/08/29 15:59:36;;;;;;;0.20;0.10;;;;;;;;;;6122792;23;20024;-86
2022/08/29 16:02:03;;;;;;;0.20;0.10;;;;;;;;;;6122786;23;20354;-84
2022/08/29 16:04:32;;;;;;;0.20;0.10;;;;;;;;;;6146406;23;20143;-85
2022/08/29 16:07:01;;;;;;;0.20;0.10;;;;;;;;;;6123129;23;20017;-88
2022/08/29 16:10:00;;;;;;;0.20;0.10;;;;;;;;;;6129029;23;20024;-87
2022/08/29 16:12:29;;;;;;;0.20;0.10;;;;;;;;;;6172661;23;20396;-87
2022/08/29 16:14:55;;;;;;;0.20;0.10;;;;;;;;;;6146726;22;20014;-85
2022/08/29 16:17:34;;;;;;;;;;;;;;;;;;;;;
2022/08/29 16:20:00;;;;;;;0.20;0.10;;;;;;;;;;6171568;23;20533;-84
2022/08/29 16:22:27;;;;;;;0.20;0.10;;;;;;;;;;6147519;23;20672;-86
2022/08/29 16:24:57;;;;;;;0.20;0.10;;;;;;;;;;6147877;22;20017;-86
2022/08/29 16:27:23;;;;;;;0.20;0.10;;;;;;;;;;6148680;22;20434;-84
2022/08/29 16:29:56;;;;;;;0.20;0.10;;;;;;;;;;6121599;23;20064;-85
2022/08/29 16:32:25;;;;;;;0.20;0.10;;;;;;;;;;6147711;23;20009;-87
2022/08/29 16:34:51;;;;;;;0.20;0.10;;;;;;;;;;6147479;23;20017;-90
2022/08/29 16:37:17;;;;;;;0.20;0.10;;;;;;;;;;6148029;23;20013;-84
2022/08/29 16:39:46;;;;;;;0.20;0.10;;;;;;;;;;6147633;23;20017;-86
2022/08/29 16:42:13;;;;;;;0.20;0.10;;;;;;;;;;6123135;23;20021;-84
2022/08/29 16:44:40;;;;;;;0.20;0.10;;;;;;;;;;6147763;23;20017;-84
2022/08/29 16:47:09;;;;;;;0.20;0.10;;;;;;;;;;6149203;23;20064;-85
2022/08/29 16:49:39;;;;;;;0.20;0.10;;;;;;;;;;6176435;22;20017;-87
2022/08/29 16:52:05;;;;;;;0.20;0.10;;;;;;;;;;6122048;23;20092;-85
2022/08/29 16:54:34;;;;;;;0.20;0.10;;;;;;;;;;6125784;23;20457;-87
2022/08/29 16:57:15;;;;;;;0.20;0.10;;;;;;;;;;6125155;23;20021;-82
2022/08/29 16:59:47;;;;;;;0.20;0.10;;;;;;;;;;6150211;23;20462;-87
2022/08/29 17:02:13;;;;;;;0.20;0.10;;;;;;;;;;6174907;23;20369;-84
2022/08/29 17:05:03;;;;;;;0.20;0.10;;;;;;;;;;6148686;23;20244;-86
2022/08/29 17:17:23;;;;;;;0.20;0.10;;;;;;;;;;6149839;23;20357;-86
2022/08/29 17:19:49;;;;;;;0.20;0.10;;;;;;;;;;6149651;23;20017;-86
2022/08/29 17:22:16;;;;;;;0.20;0.10;;;;;;;;;;6173295;23;20017;-85
2022/08/29 17:24:43;;;;;;;0.20;0.10;;;;;;;;;;6149511;22;20017;-85
2022/08/29 17:27:09;;;;;;;0.20;0.10;;;;;;;;;;6122286;23;20100;-85
2022/08/29 17:29:37;;;;;;;0.20;0.10;;;;;;;;;;6147410;23;20020;-87
2022/08/29 17:32:05;;;;;;;0.20;0.10;;;;;;;;;;6147039;23;20335;-85
2022/08/29 17:34:31;;;;;;;0.20;0.10;;;;;;;;;;6147778;23;20028;-84
2022/08/29 17:36:57;;;;;;;0.22;0.10;;;;;;;;;;6175175;23;20457;-87
2022/08/29 17:39:23;;;;;;;0.20;0.10;;;;;;;;;;6151780;22;20449;-83
2022/08/29 17:41:50;;;;;;;0.20;0.10;;;;;;;;;;6175327;23;20468;-85
2022/08/29 17:44:16;;;;;;;0.20;0.10;;;;;;;;;;6151507;23;20024;-85
2022/08/29 17:46:43;;;;;;;0.20;0.10;;;;;;;;;;6148456;23;20024;-85
2022/08/29 17:49:11;;;;;;;0.20;0.10;;;;;;;;;;6150821;22;20021;-84
2022/08/29 17:51:37;;;;;;;0.20;0.10;;;;;;;;;;6152163;22;20013;-84
2022/08/29 17:54:07;;;;;;;0.20;0.10;;;;;;;;;;6149330;23;20024;-87
2022/08/29 17:56:40;;;;;;;0.20;0.10;;;;;;;;;;6147738;22;20017;-84
2022/08/29 17:59:06;;;;;;;0.20;0.10;;;;;;;;;;6172956;23;20012;-83
2022/08/29 18:01:34;;;;;;;0.20;0.10;;;;;;;;;;6172354;23;20052;-84
2022/08/29 18:04:00;;;;;;;0.20;0.10;;;;;;;;;;6147832;23;20017;-86
2022/08/29 18:06:26;;;;;;;0.20;0.10;;;;;;;;;;6148191;23;20293;-85
2022/08/29 18:08:52;;;;;;;0.20;0.10;;;;;;;;;;6123815;23;20017;-86
2022/08/29 18:11:18;;;;;;;0.20;0.10;;;;;;;;;;6147975;23;20039;-87
2022/08/29 18:13:44;;;;;;;0.20;0.10;;;;;;;;;;6123775;23;20017;-87
2022/08/29 18:16:11;;;;;;;0.20;0.10;;;;;;;;;;6172758;23;20403;-85
2022/08/29 18:18:37;;;;;;;0.20;0.10;;;;;;;;;;6172717;23;20014;-86
2022/08/29 18:21:03;;;;;;;0.20;0.10;;;;;;;;;;6147821;22;20395;-86